createdAt,value
2022-07-30T00:00:10.987Z,7.80
2022-07-30T00:01:11.033Z,7.60
2022-07-30T00:02:10.968Z,8.10
2022-07-30T00:03:10.926Z,7.70
2022-07-30T00:04:10.955Z,7.60
2022-07-30T00:05:10.914Z,7.70
2022-07-30T00:06:10.899Z,7.90
2022-07-30T00:07:10.923Z,7.50
2022-07-30T00:08:10.864Z,7.30
2022-07-30T00:09:10.883Z,8.00
2022-07-30T00:10:10.858Z,7.30
2022-07-30T00:11:10.822Z,7.50
2022-07-30T00:12:10.825Z,7.40
2022-07-30T00:13:10.817Z,7.70
2022-07-30T00:14:10.858Z,7.70
2022-07-30T00:15:10.805Z,7.20
2022-07-30T00:16:10.828Z,8.20
2022-07-30T00:17:10.843Z,7.90
2022-07-30T00:18:11.954Z,8.60
2022-07-30T00:19:10.761Z,8.40
2022-07-30T00:20:10.729Z,8.60
2022-07-30T00:21:11.163Z,8.70
2022-07-30T00:22:10.718Z,8.80
2022-07-30T00:23:10.693Z,9.30
2022-07-30T00:24:10.727Z,8.70
2022-07-30T00:25:10.678Z,9.80
2022-07-30T00:26:10.662Z,9.80
2022-07-30T00:27:10.711Z,8.80
2022-07-30T00:28:10.635Z,10.00
2022-07-30T00:29:10.651Z,9.40
2022-07-30T00:30:10.638Z,9.50
2022-07-30T00:31:10.698Z,10.00
2022-07-30T00:32:10.606Z,8.90
2022-07-30T00:33:10.600Z,9.90
2022-07-30T00:34:10.636Z,9.90
2022-07-30T00:35:10.579Z,9.60
2022-07-30T00:36:10.673Z,9.70
2022-07-30T00:37:10.561Z,10.00
2022-07-30T00:38:10.551Z,10.00
2022-07-30T00:39:10.551Z,9.80
2022-07-30T00:40:10.498Z,9.80
2022-07-30T00:41:10.488Z,10.20
2022-07-30T00:42:10.505Z,10.20
2022-07-30T00:43:10.469Z,10.40
2022-07-30T00:44:10.531Z,10.60
2022-07-30T00:45:10.533Z,10.50
2022-07-30T00:46:10.606Z,10.80
2022-07-30T00:47:10.440Z,10.10
2022-07-30T00:48:10.475Z,9.10
2022-07-30T00:49:10.468Z,9.20
2022-07-30T00:50:10.584Z,9.80
2022-07-30T00:51:10.391Z,10.00
2022-07-30T00:52:10.462Z,9.50
2022-07-30T00:53:10.376Z,9.80
2022-07-30T00:54:10.372Z,10.10
2022-07-30T00:55:10.335Z,10.00
2022-07-30T00:56:10.361Z,9.90
2022-07-30T00:57:10.315Z,9.80
2022-07-30T00:58:10.305Z,10.00
2022-07-30T00:59:10.310Z,9.30
2022-07-30T01:00:10.276Z,10.30
2022-07-30T01:01:10.363Z,10.00
2022-07-30T01:02:10.314Z,9.60
2022-07-30T01:03:10.295Z,9.30
2022-07-30T01:04:10.301Z,9.40
2022-07-30T01:05:10.248Z,9.50
2022-07-30T01:06:14.156Z,9.30
2022-07-30T01:07:10.241Z,10.00
2022-07-30T01:08:10.178Z,9.70
2022-07-30T01:09:10.183Z,10.00
2022-07-30T01:10:10.171Z,10.10
2022-07-30T01:11:10.152Z,10.50
2022-07-30T01:12:10.183Z,11.10
2022-07-30T01:13:10.213Z,11.30
2022-07-30T01:14:10.131Z,11.20
2022-07-30T01:15:10.155Z,11.10
2022-07-30T01:16:10.132Z,9.80
2022-07-30T01:17:10.127Z,10.20
2022-07-30T01:18:10.059Z,9.50
2022-07-30T01:19:10.061Z,9.80
2022-07-30T01:20:10.131Z,9.10
2022-07-30T01:21:10.057Z,9.40
2022-07-30T01:22:10.060Z,10.20
2022-07-30T01:23:10.027Z,10.60
2022-07-30T01:24:10.023Z,10.50
2022-07-30T01:25:09.987Z,9.80
2022-07-30T01:26:09.993Z,11.10
2022-07-30T01:27:09.981Z,10.60
2022-07-30T01:28:10.111Z,9.80
2022-07-30T01:29:09.970Z,10.80
2022-07-30T01:30:09.940Z,9.80
2022-07-30T01:31:09.961Z,9.20
2022-07-30T01:32:09.938Z,10.00
2022-07-30T01:33:09.905Z,10.10
2022-07-30T01:34:09.894Z,9.70
2022-07-30T01:35:09.940Z,10.10
2022-07-30T01:36:09.884Z,10.50
2022-07-30T01:37:09.881Z,9.80
2022-07-30T01:38:09.902Z,9.30
2022-07-30T01:39:09.827Z,9.70
2022-07-30T01:40:09.818Z,10.30
2022-07-30T01:41:09.847Z,9.60
2022-07-30T01:42:09.848Z,10.00
2022-07-30T01:43:09.821Z,10.30
2022-07-30T01:44:09.779Z,8.90
2022-07-30T01:45:09.807Z,9.40
2022-07-30T01:46:09.794Z,9.90
2022-07-30T01:47:09.762Z,9.50
2022-07-30T01:48:09.731Z,9.40
2022-07-30T01:49:09.756Z,9.30
2022-07-30T01:50:10.984Z,9.60
2022-07-30T01:51:10.480Z,10.60
2022-07-30T01:52:09.711Z,10.20
2022-07-30T01:53:09.751Z,10.40
2022-07-30T01:54:09.669Z,10.00
2022-07-30T01:55:11.639Z,10.20
2022-07-30T01:56:10.809Z,10.20
2022-07-30T01:57:09.656Z,11.20
2022-07-30T01:58:09.608Z,11.10
2022-07-30T01:59:09.611Z,11.70
2022-07-30T02:00:09.590Z,10.90
2022-07-30T02:01:09.692Z,10.70
2022-07-30T02:02:09.569Z,11.40
2022-07-30T02:03:09.653Z,10.80
2022-07-30T02:04:09.551Z,12.30
2022-07-30T02:05:09.550Z,12.80
2022-07-30T02:06:09.534Z,12.80
2022-07-30T02:07:09.638Z,13.20
2022-07-30T02:08:09.531Z,13.30
2022-07-30T02:09:11.164Z,13.80
2022-07-30T02:10:09.468Z,14.00
2022-07-30T02:11:09.464Z,13.50
2022-07-30T02:12:09.453Z,13.10
2022-07-30T02:13:09.501Z,13.30
2022-07-30T02:14:09.434Z,12.40
2022-07-30T02:15:09.410Z,13.40
2022-07-30T02:16:09.479Z,13.30
2022-07-30T02:17:18.816Z,13.00
2022-07-30T02:18:09.427Z,13.10
2022-07-30T02:19:09.368Z,13.90
2022-07-30T02:20:09.994Z,13.30
2022-07-30T02:21:11.556Z,13.60
2022-07-30T02:22:09.345Z,13.90
2022-07-30T02:23:09.342Z,15.20
2022-07-30T02:24:09.310Z,14.70
2022-07-30T02:25:09.329Z,13.60
2022-07-30T02:26:09.379Z,14.00
2022-07-30T02:27:09.305Z,13.60
2022-07-30T02:28:09.323Z,15.30
2022-07-30T02:29:11.357Z,13.60
2022-07-30T02:30:09.254Z,13.90
2022-07-30T02:31:17.303Z,13.90
2022-07-30T02:32:09.231Z,16.00
2022-07-30T02:33:09.277Z,14.50
2022-07-30T02:34:09.212Z,14.80
2022-07-30T02:35:09.190Z,15.10
2022-07-30T02:36:11.351Z,15.40
2022-07-30T02:37:09.195Z,15.20
2022-07-30T02:38:09.175Z,15.90
2022-07-30T02:39:09.150Z,16.60
2022-07-30T02:40:09.156Z,16.60
2022-07-30T02:41:09.119Z,16.50
2022-07-30T02:42:09.114Z,18.70
2022-07-30T02:43:09.135Z,16.30
2022-07-30T02:44:09.078Z,16.80
2022-07-30T02:45:09.097Z,17.30
2022-07-30T02:46:09.087Z,17.80
2022-07-30T02:47:09.161Z,17.70
2022-07-30T02:48:09.073Z,17.00
2022-07-30T02:49:09.077Z,17.00
2022-07-30T02:50:09.022Z,17.30
2022-07-30T02:51:09.044Z,17.40
2022-07-30T02:52:09.009Z,18.00
2022-07-30T02:53:09.005Z,17.10
2022-07-30T02:54:08.993Z,17.90
2022-07-30T02:55:09.081Z,18.40
2022-07-30T02:56:08.960Z,18.60
2022-07-30T02:57:08.982Z,17.20
2022-07-30T02:58:08.933Z,18.90
2022-07-30T02:59:08.960Z,16.50
2022-07-30T03:00:08.920Z,15.50
2022-07-30T03:01:09.001Z,15.60
2022-07-30T03:02:08.932Z,15.50
2022-07-30T03:03:08.884Z,15.30
2022-07-30T03:04:08.919Z,14.60
2022-07-30T03:05:08.880Z,14.30
2022-07-30T03:06:08.845Z,16.30
2022-07-30T03:07:09.320Z,14.80
2022-07-30T03:08:08.824Z,14.90
2022-07-30T03:09:08.852Z,15.10
2022-07-30T03:10:08.825Z,15.40
2022-07-30T03:11:08.801Z,15.30
2022-07-30T03:12:08.847Z,16.10
2022-07-30T03:13:08.779Z,15.30
2022-07-30T03:14:08.819Z,16.60
2022-07-30T03:15:08.734Z,16.30
2022-07-30T03:16:08.785Z,16.00
2022-07-30T03:17:08.719Z,15.70
2022-07-30T03:18:08.732Z,16.60
2022-07-30T03:19:08.755Z,15.80
2022-07-30T03:20:08.683Z,17.00
2022-07-30T03:21:08.674Z,15.70
2022-07-30T03:22:08.696Z,15.90
2022-07-30T03:23:08.657Z,17.30
2022-07-30T03:24:08.664Z,18.30
2022-07-30T03:25:08.633Z,18.60
2022-07-30T03:26:08.669Z,18.00
2022-07-30T03:27:08.609Z,18.80
2022-07-30T03:28:08.593Z,17.90
2022-07-30T03:29:08.651Z,17.80
2022-07-30T03:30:08.570Z,19.10
2022-07-30T03:31:08.627Z,17.50
2022-07-30T03:32:08.549Z,19.80
2022-07-30T03:33:08.562Z,19.10
2022-07-30T03:34:08.550Z,18.00
2022-07-30T03:35:08.690Z,18.30
2022-07-30T03:36:08.507Z,18.70
2022-07-30T03:37:08.551Z,17.60
2022-07-30T03:38:08.486Z,17.70
2022-07-30T03:39:08.501Z,19.90
2022-07-30T03:40:08.470Z,18.40
2022-07-30T03:41:08.445Z,17.80
2022-07-30T03:42:08.443Z,17.40
2022-07-30T03:43:18.323Z,16.40
2022-07-30T03:44:08.447Z,15.40
2022-07-30T03:45:08.405Z,16.10
2022-07-30T03:46:08.423Z,16.40
2022-07-30T03:47:08.413Z,16.40
2022-07-30T03:48:08.369Z,15.00
2022-07-30T03:49:08.425Z,15.50
2022-07-30T03:50:08.410Z,16.80
2022-07-30T03:51:08.354Z,16.90
2022-07-30T03:52:08.390Z,15.30
2022-07-30T03:53:08.353Z,17.10
2022-07-30T03:54:11.684Z,15.90
2022-07-30T03:55:08.320Z,16.80
2022-07-30T03:56:08.288Z,15.70
2022-07-30T03:57:08.372Z,17.40
2022-07-30T03:58:08.267Z,17.60
2022-07-30T03:59:08.645Z,15.70
2022-07-30T04:00:08.254Z,16.90
2022-07-30T04:01:08.281Z,15.30
2022-07-30T04:02:08.276Z,16.20
2022-07-30T04:03:08.214Z,16.50
2022-07-30T04:04:08.303Z,16.90
2022-07-30T04:05:08.231Z,16.80
2022-07-30T04:06:08.195Z,16.60
2022-07-30T04:07:08.172Z,17.50
2022-07-30T04:08:08.142Z,16.20
2022-07-30T04:09:08.141Z,17.00
2022-07-30T04:10:08.191Z,15.80
2022-07-30T04:11:08.111Z,16.90
2022-07-30T04:12:08.097Z,16.30
2022-07-30T04:13:09.729Z,17.20
2022-07-30T04:14:08.098Z,16.10
2022-07-30T04:16:05.996Z,17.70
2022-07-30T04:16:46.506Z,16.00
2022-07-30T04:17:08.115Z,16.40
2022-07-30T04:18:08.061Z,18.60
2022-07-30T04:19:08.046Z,19.20
2022-07-30T04:20:08.000Z,18.20
2022-07-30T04:21:08.056Z,17.20
2022-07-30T04:22:08.002Z,18.10
2022-07-30T04:23:08.005Z,19.10
2022-07-30T04:24:08.046Z,20.00
2022-07-30T04:25:07.965Z,19.50
2022-07-30T04:26:07.975Z,18.80
2022-07-30T04:27:07.947Z,18.30
2022-07-30T04:28:07.921Z,19.10
2022-07-30T04:29:07.973Z,22.00
2022-07-30T04:30:07.920Z,19.80
2022-07-30T04:31:07.939Z,19.30
2022-07-30T04:32:07.909Z,19.30
2022-07-30T04:33:07.868Z,18.60
2022-07-30T04:34:07.879Z,20.10
2022-07-30T04:35:07.852Z,17.80
2022-07-30T04:36:07.866Z,17.30
2022-07-30T04:37:07.841Z,18.40
2022-07-30T04:38:07.861Z,19.70
2022-07-30T04:39:07.812Z,18.30
2022-07-30T04:40:07.791Z,19.30
2022-07-30T04:41:07.807Z,18.70
2022-07-30T04:42:07.779Z,18.80
2022-07-30T04:43:07.805Z,18.60
2022-07-30T04:44:07.752Z,18.80
2022-07-30T04:45:07.749Z,17.60
2022-07-30T04:46:07.827Z,18.10
2022-07-30T04:47:07.733Z,18.00
2022-07-30T04:48:07.709Z,18.10
2022-07-30T04:49:07.923Z,17.40
2022-07-30T04:50:07.697Z,20.70
2022-07-30T04:51:07.695Z,19.50
2022-07-30T04:52:07.659Z,19.50
2022-07-30T04:53:07.671Z,18.80
2022-07-30T04:54:07.684Z,18.10
2022-07-30T04:55:07.639Z,17.60
2022-07-30T04:56:07.623Z,17.90
2022-07-30T04:57:07.964Z,19.50
2022-07-30T04:58:07.621Z,19.00
2022-07-30T04:59:07.594Z,19.40
2022-07-30T05:00:07.818Z,17.10
2022-07-30T05:01:07.558Z,18.20
2022-07-30T05:02:07.688Z,18.00
2022-07-30T05:03:07.580Z,19.10
2022-07-30T05:04:07.527Z,18.80
2022-07-30T05:05:07.612Z,19.50
2022-07-30T05:06:07.550Z,19.50
2022-07-30T05:07:07.502Z,18.70
2022-07-30T05:08:07.491Z,16.90
2022-07-30T05:09:07.483Z,17.00
2022-07-30T05:10:07.578Z,19.30
2022-07-30T05:11:07.470Z,19.00
2022-07-30T05:12:07.449Z,19.10
2022-07-30T05:13:08.047Z,19.10
2022-07-30T05:14:07.411Z,18.60
2022-07-30T05:15:07.408Z,19.60
2022-07-30T05:16:07.437Z,18.10
2022-07-30T05:17:07.418Z,18.40
2022-07-30T05:18:07.395Z,18.80
2022-07-30T05:19:07.359Z,19.30
2022-07-30T05:20:07.394Z,18.90
2022-07-30T05:21:07.334Z,19.60
2022-07-30T05:22:07.347Z,17.50
2022-07-30T05:23:07.345Z,18.40
2022-07-30T05:24:07.302Z,18.20
2022-07-30T05:25:15.838Z,18.40
2022-07-30T05:26:07.280Z,19.00
2022-07-30T05:27:07.273Z,18.00
2022-07-30T05:28:07.281Z,17.40
2022-07-30T05:29:08.240Z,18.80
2022-07-30T05:30:08.078Z,17.50
2022-07-30T05:31:08.177Z,17.30
2022-07-30T05:32:07.392Z,18.70
2022-07-30T05:33:10.309Z,17.80
2022-07-30T05:34:07.206Z,18.70
2022-07-30T05:35:07.195Z,18.90
2022-07-30T05:36:07.161Z,18.60
2022-07-30T05:37:07.157Z,18.60
2022-07-30T05:38:07.146Z,19.60
2022-07-30T05:39:07.268Z,17.80
2022-07-30T05:40:07.164Z,18.10
2022-07-30T05:41:30.757Z,18.60
2022-07-30T05:42:07.085Z,19.40
2022-07-30T05:43:07.073Z,20.00
2022-07-30T05:44:07.065Z,18.90
2022-07-30T05:45:07.109Z,20.20
2022-07-30T05:46:07.157Z,18.50
2022-07-30T05:47:07.028Z,18.70
2022-07-30T05:48:07.020Z,18.90
2022-07-30T05:49:07.072Z,18.70
2022-07-30T05:50:07.083Z,17.30
2022-07-30T05:51:07.203Z,17.60
2022-07-30T05:52:06.989Z,18.50
2022-07-30T05:53:06.968Z,18.10
2022-07-30T05:54:06.944Z,18.20
2022-07-30T05:55:06.945Z,19.60
2022-07-30T05:56:06.999Z,18.10
2022-07-30T05:57:06.909Z,18.80
2022-07-30T05:58:06.897Z,19.50
2022-07-30T05:59:07.008Z,18.00
2022-07-30T06:00:06.880Z,18.70
2022-07-30T06:01:06.901Z,18.90
2022-07-30T06:02:06.969Z,18.30
2022-07-30T06:03:06.876Z,18.70
2022-07-30T06:04:06.877Z,18.90
2022-07-30T06:05:06.846Z,18.80
2022-07-30T06:06:06.836Z,18.10
2022-07-30T06:07:06.866Z,19.00
2022-07-30T06:08:06.850Z,20.10
2022-07-30T06:09:06.843Z,18.50
2022-07-30T06:10:06.784Z,18.30
2022-07-30T06:11:06.745Z,18.80
2022-07-30T06:12:06.816Z,18.60
2022-07-30T06:13:06.771Z,19.30
2022-07-30T06:14:06.722Z,18.00
2022-07-30T06:15:06.734Z,18.30
2022-07-30T06:16:06.793Z,19.20
2022-07-30T06:17:06.697Z,19.20
2022-07-30T06:18:06.831Z,17.60
2022-07-30T06:19:07.038Z,18.30
2022-07-30T06:20:06.736Z,19.00
2022-07-30T06:21:06.740Z,19.00
2022-07-30T06:22:07.291Z,19.80
2022-07-30T06:23:06.668Z,18.60
2022-07-30T06:24:06.609Z,18.70
2022-07-30T06:25:06.604Z,18.30
2022-07-30T06:26:06.657Z,18.90
2022-07-30T06:27:06.613Z,18.50
2022-07-30T06:28:27.376Z,18.20
2022-07-30T06:29:06.648Z,18.70
2022-07-30T06:30:06.563Z,18.10
2022-07-30T06:31:06.647Z,18.70
2022-07-30T06:32:06.546Z,17.20
2022-07-30T06:33:06.529Z,18.70
2022-07-30T06:34:06.497Z,18.30
2022-07-30T06:35:06.519Z,19.10
2022-07-30T06:36:06.481Z,18.80
2022-07-30T06:37:06.467Z,19.30
2022-07-30T06:38:07.729Z,19.10
2022-07-30T06:39:06.434Z,19.20
2022-07-30T06:40:06.501Z,18.90
2022-07-30T06:41:06.453Z,18.30
2022-07-30T06:42:06.441Z,19.00
2022-07-30T06:43:06.397Z,18.80
2022-07-30T06:44:06.389Z,19.30
2022-07-30T06:45:06.444Z,18.50
2022-07-30T06:46:06.444Z,18.90
2022-07-30T06:47:08.220Z,18.50
2022-07-30T06:48:06.424Z,18.60
2022-07-30T06:49:06.388Z,18.70
2022-07-30T06:50:06.323Z,17.70
2022-07-30T06:51:06.486Z,18.10
2022-07-30T06:52:06.294Z,18.90
2022-07-30T06:53:06.292Z,18.70
2022-07-30T06:54:06.274Z,18.10
2022-07-30T06:55:06.258Z,18.40
2022-07-30T06:56:06.249Z,18.60
2022-07-30T06:57:06.429Z,17.80
2022-07-30T06:58:06.266Z,18.00
2022-07-30T06:59:06.416Z,18.40
2022-07-30T07:00:06.214Z,17.70
2022-07-30T07:01:11.191Z,17.40
2022-07-30T07:02:06.198Z,17.10
2022-07-30T07:03:11.275Z,16.90
2022-07-30T07:04:06.224Z,17.40
2022-07-30T07:05:06.208Z,17.10
2022-07-30T07:06:06.140Z,17.50
2022-07-30T07:07:12.582Z,17.30
2022-07-30T07:08:06.170Z,17.00
2022-07-30T07:09:06.120Z,16.70
2022-07-30T07:10:06.102Z,16.60
2022-07-30T07:11:06.119Z,15.90
2022-07-30T07:12:06.061Z,16.70
2022-07-30T07:13:06.062Z,16.70
2022-07-30T07:14:06.062Z,16.50
2022-07-30T07:15:06.051Z,16.80
2022-07-30T07:16:06.013Z,17.30
2022-07-30T07:17:06.448Z,17.20
2022-07-30T07:18:06.012Z,16.90
2022-07-30T07:19:06.037Z,15.90
2022-07-30T07:20:06.087Z,16.30
2022-07-30T07:21:05.961Z,16.00
2022-07-30T07:22:05.951Z,16.40
2022-07-30T07:23:09.420Z,16.40
2022-07-30T07:24:05.998Z,15.50
2022-07-30T07:25:05.924Z,16.00
2022-07-30T07:26:05.996Z,16.20
2022-07-30T07:27:05.908Z,15.90
2022-07-30T07:28:11.104Z,15.90
2022-07-30T07:29:05.910Z,15.50
2022-07-30T07:30:06.386Z,16.10
2022-07-30T07:31:05.892Z,16.20
2022-07-30T07:32:08.086Z,16.70
2022-07-30T07:33:05.850Z,16.50
2022-07-30T07:34:05.824Z,16.90
2022-07-30T07:35:05.868Z,16.60
2022-07-30T07:36:05.855Z,16.90
2022-07-30T07:37:05.813Z,16.40
2022-07-30T07:38:05.790Z,16.50
2022-07-30T07:39:05.832Z,16.50
2022-07-30T07:40:05.757Z,16.30
2022-07-30T07:41:05.765Z,15.70
2022-07-30T07:42:05.770Z,15.80
2022-07-30T07:43:05.726Z,16.30
2022-07-30T07:44:05.736Z,16.70
2022-07-30T07:45:05.689Z,15.70
2022-07-30T07:46:05.794Z,17.20
2022-07-30T07:47:05.674Z,16.80
2022-07-30T07:48:05.698Z,16.30
2022-07-30T07:49:05.740Z,16.40
2022-07-30T07:50:05.869Z,16.60
2022-07-30T07:51:09.587Z,15.80
2022-07-30T07:52:05.692Z,16.50
2022-07-30T07:53:05.601Z,15.60
2022-07-30T07:54:21.036Z,17.70
2022-07-30T07:55:05.598Z,17.30
2022-07-30T07:56:05.580Z,17.10
2022-07-30T07:57:05.957Z,16.50
2022-07-30T07:58:05.558Z,16.60
2022-07-30T07:59:05.568Z,19.10
2022-07-30T08:00:05.526Z,17.00
2022-07-30T08:01:05.579Z,17.90
2022-07-30T08:02:05.572Z,17.20
2022-07-30T08:03:05.550Z,19.10
2022-07-30T08:04:10.474Z,17.00
2022-07-30T08:05:05.465Z,17.80
2022-07-30T08:06:06.646Z,17.40
2022-07-30T08:07:05.613Z,17.50
2022-07-30T08:08:05.483Z,17.20
2022-07-30T08:09:05.481Z,16.70
2022-07-30T08:10:05.439Z,16.70
2022-07-30T08:11:05.396Z,15.50
2022-07-30T08:12:05.397Z,16.70
2022-07-30T08:13:05.384Z,16.60
2022-07-30T08:14:05.396Z,16.00
2022-07-30T08:15:05.412Z,15.60
2022-07-30T08:16:05.369Z,15.10
2022-07-30T08:17:05.814Z,15.40
2022-07-30T08:18:05.334Z,14.40
2022-07-30T08:19:05.313Z,15.00
2022-07-30T08:20:05.306Z,13.40
2022-07-30T08:21:05.297Z,15.00
2022-07-30T08:22:05.314Z,14.70
2022-07-30T08:23:05.279Z,14.70
2022-07-30T08:24:05.243Z,15.50
2022-07-30T08:25:05.320Z,14.70
2022-07-30T08:26:05.252Z,13.80
2022-07-30T08:27:05.536Z,13.90
2022-07-30T08:28:05.210Z,13.40
2022-07-30T08:29:05.232Z,14.00
2022-07-30T08:30:05.205Z,13.60
2022-07-30T08:31:05.187Z,13.40
2022-07-30T08:32:05.487Z,13.90
2022-07-30T08:33:05.178Z,12.90
2022-07-30T08:34:05.181Z,12.80
2022-07-30T08:35:05.173Z,13.10
2022-07-30T08:36:09.546Z,12.50
2022-07-30T08:37:05.128Z,11.90
2022-07-30T08:38:05.096Z,12.20
2022-07-30T08:39:05.138Z,11.30
2022-07-30T08:40:05.137Z,11.80
2022-07-30T08:41:05.055Z,11.50
2022-07-30T08:42:05.361Z,12.00
2022-07-30T08:43:05.117Z,12.10
2022-07-30T08:44:07.878Z,11.60
2022-07-30T08:45:05.154Z,12.10
2022-07-30T08:46:05.006Z,11.10
2022-07-30T08:47:05.389Z,11.00
2022-07-30T08:48:04.979Z,11.40
2022-07-30T08:49:07.762Z,11.00
2022-07-30T08:50:04.985Z,11.40
2022-07-30T08:51:05.015Z,12.10
2022-07-30T08:52:05.296Z,11.80
2022-07-30T08:53:05.177Z,11.60
2022-07-30T08:54:04.999Z,10.90
2022-07-30T08:55:04.925Z,11.40
2022-07-30T08:56:04.905Z,11.50
2022-07-30T08:57:04.906Z,10.50
2022-07-30T08:58:04.906Z,11.50
2022-07-30T08:59:04.868Z,11.00
2022-07-30T09:00:04.894Z,11.80
2022-07-30T09:01:04.845Z,10.70
2022-07-30T09:02:08.929Z,11.00
2022-07-30T09:03:04.844Z,10.90
2022-07-30T09:05:04.815Z,11.70
2022-07-30T09:06:04.785Z,10.50
2022-07-30T09:07:04.986Z,11.10
2022-07-30T09:08:08.550Z,10.60
2022-07-30T09:09:04.763Z,10.30
2022-07-30T09:10:04.748Z,11.60
2022-07-30T09:11:04.952Z,11.60
2022-07-30T09:12:04.717Z,10.50
2022-07-30T09:13:04.760Z,11.30
2022-07-30T09:14:08.375Z,11.60
2022-07-30T09:15:04.671Z,11.00
2022-07-30T09:16:04.743Z,12.10
2022-07-30T09:17:05.300Z,11.10
2022-07-30T09:18:04.698Z,10.60
2022-07-30T09:19:04.666Z,11.00
2022-07-30T09:20:04.652Z,10.90
2022-07-30T09:21:04.639Z,10.60
2022-07-30T09:22:04.623Z,10.70
2022-07-30T09:23:04.611Z,11.70
2022-07-30T09:24:04.759Z,12.60
2022-07-30T09:25:04.580Z,10.80
2022-07-30T09:26:04.549Z,11.40
2022-07-30T09:27:04.974Z,11.10
2022-07-30T09:28:15.818Z,11.60
2022-07-30T09:29:04.589Z,10.20
2022-07-30T09:30:04.820Z,10.50
2022-07-30T09:31:04.522Z,10.40
2022-07-30T09:32:04.994Z,11.10
2022-07-30T09:33:04.517Z,10.80
2022-07-30T09:34:04.522Z,10.20
2022-07-30T09:35:06.278Z,10.70
2022-07-30T09:36:04.961Z,10.20
2022-07-30T09:37:04.442Z,10.10
2022-07-30T09:38:06.681Z,9.70
2022-07-30T09:39:04.439Z,9.60
2022-07-30T09:40:04.415Z,9.80
2022-07-30T09:41:12.222Z,9.40
2022-07-30T09:42:04.878Z,9.60
2022-07-30T09:43:05.242Z,10.40
2022-07-30T09:44:04.489Z,9.60
2022-07-30T09:45:04.728Z,10.00
2022-07-30T09:46:04.388Z,11.40
2022-07-30T09:47:04.362Z,10.00
2022-07-30T09:48:04.325Z,9.70
2022-07-30T09:49:04.346Z,10.20
2022-07-30T09:50:06.933Z,8.60
2022-07-30T09:51:04.306Z,8.90
2022-07-30T09:52:04.302Z,8.10
2022-07-30T09:53:04.284Z,8.20
2022-07-30T09:54:04.270Z,9.00
2022-07-30T09:55:04.260Z,7.80
2022-07-30T09:56:04.284Z,8.20
2022-07-30T09:57:04.229Z,8.70
2022-07-30T09:58:04.206Z,8.00
2022-07-30T09:59:05.129Z,8.80
2022-07-30T10:00:04.202Z,9.70
2022-07-30T10:01:04.201Z,9.00
2022-07-30T10:02:05.166Z,9.60
2022-07-30T10:03:12.605Z,9.40
2022-07-30T10:04:04.196Z,8.60
2022-07-30T10:05:04.143Z,10.30
2022-07-30T10:06:04.135Z,10.20
2022-07-30T10:07:04.446Z,12.70
2022-07-30T10:08:09.290Z,10.80
2022-07-30T10:09:13.888Z,10.30
2022-07-30T10:10:06.320Z,10.70
2022-07-30T10:11:08.478Z,9.30
2022-07-30T10:12:04.450Z,9.20
2022-07-30T10:13:05.509Z,8.90
2022-07-30T10:14:04.672Z,8.50
2022-07-30T10:15:06.173Z,9.00
2022-07-30T10:16:04.505Z,7.80
2022-07-30T10:17:04.010Z,7.40
2022-07-30T10:18:06.021Z,8.30
2022-07-30T10:19:04.278Z,7.50
2022-07-30T10:20:08.188Z,7.80
2022-07-30T10:21:05.397Z,8.00
2022-07-30T10:22:04.487Z,8.20
2022-07-30T10:23:08.316Z,8.20
2022-07-30T10:24:04.202Z,7.10
2022-07-30T10:25:05.283Z,7.50
2022-07-30T10:26:03.990Z,10.20
2022-07-30T10:27:06.311Z,8.10
2022-07-30T10:28:03.880Z,7.90
2022-07-30T10:29:03.901Z,7.40
2022-07-30T10:30:04.253Z,8.20
2022-07-30T10:31:47.163Z,7.00
2022-07-30T10:32:03.871Z,6.60
2022-07-30T10:33:03.817Z,6.80
2022-07-30T10:34:03.849Z,6.70
2022-07-30T10:35:05.886Z,6.10
2022-07-30T10:36:03.841Z,6.60
2022-07-30T10:37:04.683Z,6.20
2022-07-30T10:38:03.808Z,6.70
2022-07-30T10:39:03.839Z,8.10
2022-07-30T10:40:03.759Z,7.00
2022-07-30T10:41:03.792Z,7.30
2022-07-30T10:42:03.730Z,7.20
2022-07-30T10:43:03.757Z,9.00
2022-07-30T10:44:03.704Z,7.60
2022-07-30T10:45:04.235Z,7.00
2022-07-30T10:46:05.033Z,6.90
2022-07-30T10:47:07.156Z,7.20
2022-07-30T10:48:03.663Z,7.80
2022-07-30T10:49:03.740Z,6.60
2022-07-30T10:50:03.682Z,7.00
2022-07-30T10:51:04.188Z,5.90
2022-07-30T10:52:03.624Z,6.40
2022-07-30T10:53:03.662Z,5.90
2022-07-30T10:54:03.641Z,6.40
2022-07-30T10:55:03.619Z,5.90
2022-07-30T10:56:03.584Z,6.40
2022-07-30T10:57:04.051Z,6.80
2022-07-30T10:58:03.545Z,6.50
2022-07-30T10:59:03.609Z,6.00
2022-07-30T11:00:03.909Z,6.60
2022-07-30T11:01:03.541Z,7.10
2022-07-30T11:02:03.907Z,6.80
2022-07-30T11:03:14.123Z,7.00
2022-07-30T11:04:03.502Z,6.10
2022-07-30T11:05:03.502Z,6.00
2022-07-30T11:06:03.454Z,6.80
2022-07-30T11:07:03.758Z,6.70
2022-07-30T11:08:03.439Z,6.20
2022-07-30T11:09:03.448Z,5.80
2022-07-30T11:10:09.043Z,5.40
2022-07-30T11:11:19.442Z,6.30
2022-07-30T11:12:06.533Z,6.50
2022-07-30T11:13:03.451Z,5.80
2022-07-30T11:14:03.423Z,5.90
2022-07-30T11:15:07.495Z,5.70
2022-07-30T11:16:03.353Z,5.60
2022-07-30T11:17:03.339Z,5.50
2022-07-30T11:18:03.490Z,5.70
2022-07-30T11:19:19.562Z,5.80
2022-07-30T11:20:03.342Z,7.00
2022-07-30T11:21:03.332Z,5.80
2022-07-30T11:22:03.706Z,6.50
2022-07-30T11:23:03.304Z,5.20
2022-07-30T11:24:03.297Z,5.60
2022-07-30T11:25:12.749Z,4.70
2022-07-30T11:26:03.244Z,5.00
2022-07-30T11:27:03.250Z,6.10
2022-07-30T11:28:03.247Z,6.80
2022-07-30T11:29:03.214Z,5.90
2022-07-30T11:30:03.224Z,5.00
2022-07-30T11:31:10.074Z,4.80
2022-07-30T11:32:06.784Z,5.40
2022-07-30T11:33:04.498Z,6.80
2022-07-30T11:34:03.209Z,6.10
2022-07-30T11:35:03.165Z,5.70
2022-07-30T11:36:03.135Z,5.70
2022-07-30T11:37:03.113Z,5.60
2022-07-30T11:38:03.112Z,5.40
2022-07-30T11:39:03.718Z,5.60
2022-07-30T11:40:03.077Z,4.90
2022-07-30T11:41:03.075Z,5.00
2022-07-30T11:42:03.471Z,4.70
2022-07-30T11:43:03.047Z,5.30
2022-07-30T11:44:03.067Z,4.30
2022-07-30T11:45:04.183Z,5.20
2022-07-30T11:46:03.015Z,5.60
2022-07-30T11:47:03.011Z,5.00
2022-07-30T11:48:03.086Z,4.80
2022-07-30T11:49:03.091Z,4.70
2022-07-30T11:50:02.960Z,5.40
2022-07-30T11:51:04.042Z,5.00
2022-07-30T11:52:03.363Z,6.30
2022-07-30T11:53:02.926Z,5.00
2022-07-30T11:54:03.005Z,4.60
2022-07-30T11:55:02.917Z,4.80
2022-07-30T11:56:02.907Z,4.50
2022-07-30T11:57:04.800Z,4.80
2022-07-30T11:58:02.884Z,4.40
2022-07-30T11:59:02.899Z,4.80
2022-07-30T12:00:02.914Z,4.30
2022-07-30T12:01:02.842Z,4.40
2022-07-30T12:02:03.058Z,5.30
2022-07-30T12:03:04.274Z,4.30
2022-07-30T12:04:02.847Z,4.20
2022-07-30T12:05:02.837Z,4.40
2022-07-30T12:06:02.798Z,4.30
2022-07-30T12:07:03.006Z,4.70
2022-07-30T12:08:02.773Z,4.40
2022-07-30T12:09:02.833Z,4.00
2022-07-30T12:10:02.777Z,4.70
2022-07-30T12:11:02.782Z,4.70
2022-07-30T12:12:02.738Z,4.30
2022-07-30T12:13:02.850Z,4.70
2022-07-30T12:14:02.709Z,4.20
2022-07-30T12:15:02.732Z,4.10
2022-07-30T12:16:02.729Z,4.80
2022-07-30T12:17:03.011Z,4.50
2022-07-30T12:18:25.359Z,4.50
2022-07-30T12:19:02.670Z,5.40
2022-07-30T12:20:02.637Z,4.00
2022-07-30T12:21:02.684Z,5.20
2022-07-30T12:22:02.631Z,4.20
2022-07-30T12:23:02.610Z,4.30
2022-07-30T12:24:02.990Z,4.50
2022-07-30T12:25:02.596Z,4.20
2022-07-30T12:26:02.640Z,4.50
2022-07-30T12:27:02.811Z,4.20
2022-07-30T12:28:02.569Z,4.40
2022-07-30T12:29:02.519Z,3.90
2022-07-30T12:30:02.650Z,4.40
2022-07-30T12:31:02.921Z,4.20
2022-07-30T12:32:02.507Z,3.70
2022-07-30T12:33:02.527Z,4.50
2022-07-30T12:34:02.540Z,4.60
2022-07-30T12:35:02.501Z,4.10
2022-07-30T12:36:02.447Z,4.00
2022-07-30T12:37:02.813Z,4.10
2022-07-30T12:38:02.468Z,3.90
2022-07-30T12:39:02.409Z,3.70
2022-07-30T12:40:02.451Z,3.70
2022-07-30T12:41:02.389Z,4.00
2022-07-30T12:42:02.426Z,3.50
2022-07-30T12:43:02.367Z,3.70
2022-07-30T12:44:02.354Z,3.90
2022-07-30T12:45:02.347Z,3.80
2022-07-30T12:46:02.377Z,4.40
2022-07-30T12:47:02.670Z,3.40
2022-07-30T12:48:02.334Z,3.90
2022-07-30T12:49:19.152Z,3.70
2022-07-30T12:50:02.459Z,3.50
2022-07-30T12:51:02.305Z,3.60
2022-07-30T12:52:02.286Z,3.50
2022-07-30T12:53:02.293Z,3.40
2022-07-30T12:54:02.267Z,3.80
2022-07-30T12:55:02.244Z,3.50
2022-07-30T12:56:02.214Z,3.50
2022-07-30T12:57:02.507Z,2.90
2022-07-30T12:58:07.690Z,3.00
2022-07-30T12:59:02.206Z,3.20
2022-07-30T13:00:02.230Z,3.30
2022-07-30T13:01:02.154Z,3.10
2022-07-30T13:02:02.228Z,3.40